Time,TemperatureF,DewpointF,PressureIn,WindDirection,WindDirectionDegrees,WindSpeedMPH,WindSpeedGustMPH,Humidity,HourlyPrecipIn,Conditions,Clouds,dailyrainin,SoftwareType,DateUTC
2013-06-05 00:00:00,62.2,59.6,29.26,East,90,0.0,0.0,91,0.00,,OVC240,0.00,VWS V14.01,2013-06-05 05:00:00,
2013-06-05 00:10:00,61.9,59.2,29.26,East,90,0.0,0.0,91,0.00,,OVC240,0.00,VWS V14.01,2013-06-05 05:10:00,
2013-06-05 00:20:00,62.1,59.7,29.26,East,90,0.0,0.0,92,0.00,,OVC240,0.00,VWS V14.01,2013-06-05 05:20:00,
2013-06-05 00:21:00,62.1,59.7,29.26,East,90,0.0,0.0,92,0.00,,OVC240,0.00,VWS V14.01,2013-06-05 05:21:00,
2013-06-05 00:30:00,62.1,60.0,29.26,East,90,0.0,0.0,93,0.00,,OVC240,0.00,VWS V14.01,2013-06-05 05:30:00,
2013-06-05 00:40:00,61.9,59.8,29.26,East,90,0.0,0.0,93,0.00,,OVC240,0.00,VWS V14.01,2013-06-05 05:40:00,
2013-06-05 00:50:00,61.3,59.3,29.26,East,90,0.0,0.0,93,0.00,,OVC240,0.00,VWS V14.01,2013-06-05 05:50:00,
2013-06-05 01:00:00,61.2,59.1,29.26,East,90,0.0,0.0,93,0.00,,OVC240,0.00,VWS V14.01,2013-06-05 06:00:00,
2013-06-05 01:10:00,61.0,59.0,29.26,East,90,1.3,1.3,93,0.00,,OVC240,0.00,VWS V14.01,2013-06-05 06:10:00,
2013-06-05 01:11:00,61.0,59.0,29.26,East,90,1.3,1.3,93,0.00,,OVC240,0.00,VWS V14.01,2013-06-05 06:11:00,
2013-06-05 01:20:00,61.3,59.6,29.26,East,90,1.1,1.1,94,0.00,,OVC240,0.00,VWS V14.01,2013-06-05 06:20:00,
2013-06-05 01:40:00,60.8,59.1,29.23,West,270,0.0,0.0,94,0.00,,OVC240,0.00,VWS V14.01,2013-06-05 06:40:00,
2013-06-05 01:50:00,60.8,59.1,29.23,West,270,0.0,0.0,94,0.00,,OVC240,0.00,VWS V14.01,2013-06-05 06:50:00,
2013-06-05 02:00:00,61.0,59.2,29.23,West,270,0.0,0.0,94,0.00,,OVC240,0.00,VWS V14.01,2013-06-05 07:00:00,
2013-06-05 02:10:00,60.8,59.1,29.23,West,270,0.0,0.0,94,0.00,,OVC240,0.00,VWS V14.01,2013-06-05 07:10:00,
2013-06-05 02:20:00,60.8,59.4,29.23,West,270,0.0,0.0,95,0.00,,OVC240,0.00,VWS V14.01,2013-06-05 07:20:00,
2013-06-05 02:30:00,60.8,59.4,29.23,West,270,0.0,0.0,95,0.00,,OVC240,0.00,VWS V14.01,2013-06-05 07:30:00,
2013-06-05 02:40:00,60.6,59.2,29.23,West,270,0.0,0.0,95,0.00,,OVC240,0.00,VWS V14.01,2013-06-05 07:40:00,
2013-06-05 02:50:00,61.2,60.0,29.23,West,270,0.0,0.0,96,0.00,,OVC240,0.00,VWS V14.01,2013-06-05 07:50:00,
2013-06-05 03:00:00,61.2,60.0,29.23,West,270,0.0,0.0,96,0.00,,OVC240,0.00,VWS V14.01,2013-06-05 08:00:00,
2013-06-05 03:10:00,61.2,60.0,29.23,West,270,0.0,0.0,96,0.00,,OVC240,0.00,VWS V14.01,2013-06-05 08:10:00,
2013-06-05 03:11:00,61.2,60.0,29.23,West,270,0.0,0.0,96,0.00,,OVC240,0.00,VWS V14.01,2013-06-05 08:11:00,
2013-06-05 03:20:00,61.3,60.2,29.23,NE,45,0.0,0.0,96,0.00,,OVC240,0.00,VWS V14.01,2013-06-05 08:20:00,
2013-06-05 03:30:00,61.7,60.5,29.23,NE,45,1.1,1.3,96,0.00,,OVC240,0.00,VWS V14.01,2013-06-05 08:30:00,
2013-06-05 03:31:00,61.7,60.5,29.23,NE,45,1.1,1.3,96,0.00,,OVC240,0.00,VWS V14.01,2013-06-05 08:31:00,
2013-06-05 03:40:00,62.1,60.9,29.23,NE,45,0.0,0.0,96,0.00,,OVC240,0.00,VWS V14.01,2013-06-05 08:40:00,
2013-06-05 04:00:00,61.9,60.7,29.26,NE,45,0.0,0.0,96,0.00,,OVC240,0.00,VWS V14.01,2013-06-05 09:00:00,
2013-06-05 04:10:00,61.9,60.7,29.23,NE,45,0.0,0.0,96,0.00,,OVC240,0.00,VWS V14.01,2013-06-05 09:10:00,
2013-06-05 04:20:00,62.1,60.9,29.23,NE,45,0.0,0.0,96,0.00,,OVC240,0.00,VWS V14.01,2013-06-05 09:20:00,
2013-06-05 04:24:00,62.2,61.1,29.26,NE,45,1.3,1.3,96,0.00,,OVC240,0.00,VWS V14.01,2013-06-05 09:24:00,
2013-06-05 04:25:00,62.4,61.3,29.26,NE,45,1.1,1.3,96,0.00,,OVC240,0.00,VWS V14.01,2013-06-05 09:25:00,
2013-06-05 04:26:00,62.4,61.3,29.26,NE,45,0.0,1.3,96,0.00,,OVC240,0.00,VWS V14.01,2013-06-05 09:26:00,
2013-06-05 04:27:00,62.4,61.3,29.26,NE,45,0.9,1.3,96,0.00,,OVC240,0.00,VWS V14.01,2013-06-05 09:27:00,
2013-06-05 04:28:00,62.4,61.3,29.26,NW,315,0.0,1.3,96,0.00,,OVC240,0.00,VWS V14.01,2013-06-05 09:28:00,
2013-06-05 04:29:00,62.4,61.3,29.26,North,0,1.1,1.1,96,0.00,,OVC240,0.00,VWS V14.01,2013-06-05 09:29:00,
2013-06-05 04:30:00,62.6,61.5,29.26,North,0,0.0,1.1,96,0.00,,OVC240,0.00,VWS V14.01,2013-06-05 09:30:00,
2013-06-05 04:31:00,62.6,61.5,29.26,NE,45,2.0,2.0,96,0.00,,OVC240,0.00,VWS V14.01,2013-06-05 09:31:00,
2013-06-05 04:32:00,62.6,61.5,29.26,NE,45,1.3,2.0,96,0.00,,OVC240,0.00,VWS V14.01,2013-06-05 09:32:00,
2013-06-05 04:33:00,62.6,61.5,29.26,NE,45,0.0,2.0,96,0.00,,OVC240,0.00,VWS V14.01,2013-06-05 09:33:00,
2013-06-05 04:34:00,62.8,61.6,29.26,South,180,1.3,2.0,96,0.00,,OVC240,0.00,VWS V14.01,2013-06-05 09:34:00,
2013-06-05 04:35:00,62.8,61.6,29.26,South,180,0.9,2.0,96,0.00,,OVC240,0.00,VWS V14.01,2013-06-05 09:35:00,
2013-06-05 04:36:00,62.8,61.6,29.23,South,180,0.0,1.3,96,0.00,,OVC240,0.00,VWS V14.01,2013-06-05 09:36:00,
2013-06-05 04:37:00,62.8,61.6,29.23,South,180,0.0,1.3,96,0.00,,OVC240,0.00,VWS V14.01,2013-06-05 09:37:00,
2013-06-05 04:38:00,62.8,61.6,29.23,South,180,0.0,1.3,96,0.00,,OVC240,0.00,VWS V14.01,2013-06-05 09:38:00,
2013-06-05 04:40:00,62.8,61.6,29.23,South,180,0.0,1.3,96,0.00,,OVC240,0.00,VWS V14.01,2013-06-05 09:40:00,
2013-06-05 04:50:00,63.0,61.8,29.23,SE,135,0.0,0.0,96,0.00,,OVC240,0.00,VWS V14.01,2013-06-05 09:50:00,
2013-06-05 05:00:00,63.1,62.0,29.26,ENE,68,1.3,1.3,96,0.00,,OVC240,0.00,VWS V14.01,2013-06-05 10:00:00,
2013-06-05 05:01:00,63.1,62.0,29.26,ENE,68,1.3,1.3,96,0.00,,OVC240,0.00,VWS V14.01,2013-06-05 10:01:00,
2013-06-05 05:10:00,63.1,62.0,29.26,ENE,68,0.0,0.0,96,0.00,,OVC240,0.00,VWS V14.01,2013-06-05 10:10:00,
2013-06-05 05:20:00,63.1,62.0,29.26,SW,225,4.9,5.6,96,0.00,,OVC240,0.00,VWS V14.01,2013-06-05 10:20:00,
2013-06-05 05:30:00,63.3,62.2,29.26,NNE,22,2.9,2.9,96,0.00,,OVC240,0.00,VWS V14.01,2013-06-05 10:30:00,
2013-06-05 05:31:00,63.3,62.2,29.26,NNE,22,2.9,2.9,96,0.00,,OVC240,0.00,VWS V14.01,2013-06-05 10:31:00,
2013-06-05 05:40:00,63.7,62.8,29.23,North,0,1.3,2.0,97,0.00,,OVC240,0.00,VWS V14.01,2013-06-05 10:40:00,
2013-06-05 05:50:00,63.9,63.0,29.23,East,90,1.1,2.0,97,0.00,,OVC240,0.00,VWS V14.01,2013-06-05 10:50:00,
2013-06-05 06:00:00,64.0,63.2,29.29,NNE,22,3.1,3.1,97,0.00,,OVC240,0.00,VWS V14.01,2013-06-05 11:00:00,
2013-06-05 06:10:00,64.0,63.2,29.26,SW,225,1.6,1.6,97,0.00,,OVC240,0.00,VWS V14.01,2013-06-05 11:10:00,
2013-06-05 06:11:00,64.0,63.2,29.26,SW,225,1.1,1.6,97,0.00,,OVC240,0.00,VWS V14.01,2013-06-05 11:11:00,
2013-06-05 06:12:00,64.0,63.2,29.26,SW,225,1.6,1.6,97,0.00,,OVC240,0.00,VWS V14.01,2013-06-05 11:12:00,
2013-06-05 06:13:00,64.0,63.2,29.26,SW,225,0.0,1.6,97,0.00,,OVC240,0.00,VWS V14.01,2013-06-05 11:13:00,
2013-06-05 06:14:00,64.0,63.2,29.26,SW,225,0.0,1.6,97,0.00,,OVC240,0.00,VWS V14.01,2013-06-05 11:14:00,
2013-06-05 06:15:00,64.0,63.2,29.26,SW,225,0.0,1.6,97,0.00,,OVC240,0.00,VWS V14.01,2013-06-05 11:15:00,
2013-06-05 06:23:00,64.0,63.2,29.26,SW,225,0.0,0.0,97,0.00,,OVC240,0.00,VWS V14.01,2013-06-05 11:23:00,
2013-06-05 06:24:00,64.0,63.2,29.26,SW,225,0.0,0.0,97,0.00,,OVC240,0.00,VWS V14.01,2013-06-05 11:24:00,
2013-06-05 06:25:00,64.0,63.2,29.26,SW,225,0.0,0.0,97,0.00,,OVC240,0.00,VWS V14.01,2013-06-05 11:25:00,
2013-06-05 06:26:00,64.0,63.2,29.26,SW,225,0.0,0.0,97,0.00,,OVC240,0.00,VWS V14.01,2013-06-05 11:26:00,
2013-06-05 06:27:00,64.0,63.2,29.26,SW,225,0.0,0.0,97,0.00,,OVC240,0.00,VWS V14.01,2013-06-05 11:27:00,
2013-06-05 06:28:00,64.0,63.2,29.26,SW,225,0.0,0.0,97,0.00,,OVC240,0.00,VWS V14.01,2013-06-05 11:28:00,
2013-06-05 06:30:00,64.0,63.2,29.26,SW,225,0.0,0.0,97,0.00,,OVC240,0.00,VWS V14.01,2013-06-05 11:30:00,
2013-06-05 06:31:00,64.0,63.2,29.26,SW,225,0.0,0.0,97,0.00,,OVC240,0.00,VWS V14.01,2013-06-05 11:31:00,
2013-06-05 06:40:00,63.9,63.0,29.29,SW,225,1.3,1.6,97,0.00,,OVC240,0.00,VWS V14.01,2013-06-05 11:40:00,
2013-06-05 06:50:00,65.1,64.2,29.29,SSE,158,0.0,1.1,97,0.00,,OVC240,0.00,VWS V14.01,2013-06-05 11:50:00,
2013-06-05 06:51:00,65.1,64.2,29.29,SSE,158,0.0,1.1,97,0.00,,OVC240,0.00,VWS V14.01,2013-06-05 11:51:00,
2013-06-05 07:00:00,66.4,65.5,29.26,North,0,0.0,0.0,97,0.00,,OVC240,0.00,VWS V14.01,2013-06-05 12:00:00,
2013-06-05 07:10:00,68.5,67.4,29.23,WSW,248,1.6,1.6,96,0.00,,OVC240,0.00,VWS V14.01,2013-06-05 12:10:00,
2013-06-05 07:20:00,69.3,68.1,29.23,SW,225,0.0,0.0,96,0.00,,OVC240,0.00,VWS V14.01,2013-06-05 12:20:00,
2013-06-05 07:21:00,69.1,67.9,29.26,East,90,1.6,1.6,96,0.00,,OVC240,0.00,VWS V14.01,2013-06-05 12:21:00,
2013-06-05 07:22:00,69.1,67.9,29.26,East,90,1.1,1.6,96,0.00,,OVC240,0.00,VWS V14.01,2013-06-05 12:22:00,
2013-06-05 07:23:00,68.9,67.4,29.26,East,90,2.0,2.0,95,0.00,,OVC240,0.00,VWS V14.01,2013-06-05 12:23:00,
2013-06-05 07:24:00,68.9,67.4,29.26,East,90,1.6,2.0,95,0.00,,OVC240,0.00,VWS V14.01,2013-06-05 12:24:00,
2013-06-05 07:25:00,68.9,67.4,29.26,East,90,1.3,2.0,95,0.00,,OVC240,0.00,VWS V14.01,2013-06-05 12:25:00,
2013-06-05 07:26:00,68.9,67.4,29.26,East,90,1.3,2.0,95,0.00,,OVC240,0.00,VWS V14.01,2013-06-05 12:26:00,
2013-06-05 07:29:00,68.9,67.4,29.26,East,90,1.3,2.0,95,0.00,,OVC240,0.00,VWS V14.01,2013-06-05 12:29:00,
2013-06-05 07:30:00,69.1,67.6,29.26,East,90,0.0,0.0,95,0.00,,OVC240,0.00,VWS V14.01,2013-06-05 12:30:00,
2013-06-05 07:40:00,69.3,67.8,29.26,NE,45,1.1,1.1,95,0.00,,OVC240,0.00,VWS V14.01,2013-06-05 12:40:00,
2013-06-05 07:50:00,68.7,66.9,29.26,NE,45,3.1,3.1,94,0.00,,OVC240,0.00,VWS V14.01,2013-06-05 12:50:00,
2013-06-05 08:00:00,71.6,70.1,29.26,NE,45,1.6,2.2,95,0.00,,OVC240,0.00,VWS V14.01,2013-06-05 13:00:00,
2013-06-05 08:20:00,71.2,68.8,29.26,NNE,22,2.7,2.7,92,0.00,,OVC240,0.00,VWS V14.01,2013-06-05 13:20:00,
2013-06-05 08:30:00,71.8,69.3,29.26,East,90,1.1,1.1,92,0.00,,OVC240,0.00,VWS V14.01,2013-06-05 13:30:00,
2013-06-05 08:31:00,71.8,69.3,29.26,East,90,1.1,1.1,92,0.00,,OVC240,0.00,VWS V14.01,2013-06-05 13:31:00,
2013-06-05 08:37:00,73.4,71.3,29.26,East,90,0.9,0.9,93,0.00,,OVC240,0.00,VWS V14.01,2013-06-05 13:37:00,
2013-06-05 08:38:00,73.6,71.4,29.26,NE,45,1.3,1.3,93,0.00,,OVC240,0.00,VWS V14.01,2013-06-05 13:38:00,
2013-06-05 08:39:00,73.9,71.8,29.26,NE,45,0.0,1.3,93,0.00,,OVC240,0.00,VWS V14.01,2013-06-05 13:39:00,
2013-06-05 08:40:00,74.5,72.3,29.26,NE,45,0.0,1.3,93,0.00,,OVC240,0.00,VWS V14.01,2013-06-05 13:40:00,
2013-06-05 08:41:00,74.7,72.5,29.26,NE,45,0.0,1.3,93,0.00,,OVC240,0.00,VWS V14.01,2013-06-05 13:41:00,
2013-06-05 08:42:00,75.0,72.9,29.26,NE,45,0.9,1.3,93,0.00,,OVC240,0.00,VWS V14.01,2013-06-05 13:42:00,
2013-06-05 08:45:00,75.0,72.9,29.26,NE,45,0.9,1.3,93,0.00,,OVC240,0.00,VWS V14.01,2013-06-05 13:45:00,
2013-06-05 08:50:00,76.1,73.6,29.26,NE,45,0.9,0.9,92,0.00,,OVC240,0.00,VWS V14.01,2013-06-05 13:50:00,
2013-06-05 08:52:00,76.3,73.5,29.26,NE,45,1.6,1.6,91,0.00,,OVC240,0.00,VWS V14.01,2013-06-05 13:52:00,
2013-06-05 08:53:00,76.3,73.5,29.26,NE,45,0.0,1.6,91,0.00,,OVC240,0.00,VWS V14.01,2013-06-05 13:53:00,
2013-06-05 08:54:00,76.5,73.6,29.26,NE,45,0.0,1.6,91,0.00,,OVC240,0.00,VWS V14.01,2013-06-05 13:54:00,
2013-06-05 08:55:00,76.8,74.0,29.26,West,270,1.6,1.6,91,0.00,,OVC240,0.00,VWS V14.01,2013-06-05 13:55:00,
2013-06-05 09:00:00,76.8,74.0,29.26,West,270,1.6,1.6,91,0.00,,OVC240,0.00,VWS V14.01,2013-06-05 14:00:00,
2013-06-05 09:06:00,77.4,74.2,29.26,West,270,1.3,1.3,90,0.00,,OVC240,0.00,VWS V14.01,2013-06-05 14:06:00,
2013-06-05 09:07:00,77.5,74.4,29.26,West,270,0.0,1.3,90,0.00,,OVC240,0.00,VWS V14.01,2013-06-05 14:07:00,
2013-06-05 09:08:00,77.5,74.1,29.26,West,270,1.3,1.3,89,0.00,,OVC240,0.00,VWS V14.01,2013-06-05 14:08:00,
2013-06-05 09:09:00,77.4,73.9,29.26,WNW,292,1.1,1.3,89,0.00,,OVC240,0.00,VWS V14.01,2013-06-05 14:09:00,
2013-06-05 09:10:00,77.4,73.9,29.26,West,270,1.6,1.6,89,0.00,,OVC240,0.00,VWS V14.01,2013-06-05 14:10:00,
2013-06-05 09:11:00,77.2,73.7,29.26,West,270,1.6,1.6,89,0.00,,OVC240,0.00,VWS V14.01,2013-06-05 14:11:00,
2013-06-05 09:12:00,77.0,73.5,29.26,West,270,2.2,2.2,89,0.00,,OVC240,0.00,VWS V14.01,2013-06-05 14:12:00,
2013-06-05 09:14:00,76.8,73.3,29.26,West,270,2.5,2.5,89,0.00,,OVC240,0.00,VWS V14.01,2013-06-05 14:14:00,
2013-06-05 09:15:00,76.6,73.2,29.26,West,270,1.6,2.5,89,0.00,,OVC240,0.00,VWS V14.01,2013-06-05 14:15:00,
2013-06-05 09:16:00,76.5,73.0,29.26,WNW,292,1.6,2.5,89,0.00,,OVC240,0.00,VWS V14.01,2013-06-05 14:16:00,
2013-06-05 09:17:00,76.3,72.8,29.26,WNW,292,2.7,2.7,89,0.00,,OVC240,0.00,VWS V14.01,2013-06-05 14:17:00,
2013-06-05 09:18:00,76.1,72.6,29.26,WNW,292,2.0,2.7,89,0.00,,OVC240,0.00,VWS V14.01,2013-06-05 14:18:00,
2013-06-05 09:20:00,76.1,72.6,29.26,WNW,292,1.1,2.7,89,0.00,,OVC240,0.00,VWS V14.01,2013-06-05 14:20:00,
2013-06-05 09:25:00,76.1,72.6,29.26,WNW,292,1.1,2.7,89,0.00,,OVC240,0.00,VWS V14.01,2013-06-05 14:25:00,
2013-06-05 09:30:00,76.3,73.1,29.29,WNW,292,0.0,0.0,90,0.00,,OVC240,0.00,VWS V14.01,2013-06-05 14:30:00,
2013-06-05 09:40:00,78.3,75.1,29.23,WNW,292,0.0,0.0,90,0.00,,OVC240,0.00,VWS V14.01,2013-06-05 14:40:00,
2013-06-05 09:47:00,80.8,77.2,29.23,WNW,292,1.1,1.1,89,0.00,,OVC240,0.00,VWS V14.01,2013-06-05 14:47:00,
2013-06-05 09:48:00,81.1,77.2,29.23,WNW,292,0.0,1.1,88,0.00,,OVC240,0.00,VWS V14.01,2013-06-05 14:48:00,
2013-06-05 09:49:00,81.3,77.4,29.23,WNW,292,0.0,1.1,88,0.00,,OVC240,0.00,VWS V14.01,2013-06-05 14:49:00,
2013-06-05 09:51:00,81.9,77.6,29.26,WNW,292,0.0,1.1,87,0.00,,OVC240,0.00,VWS V14.01,2013-06-05 14:51:00,
2013-06-05 09:52:00,82.2,78.0,29.26,WNW,292,0.0,1.1,87,0.00,,OVC240,0.00,VWS V14.01,2013-06-05 14:52:00,
2013-06-05 09:53:00,82.4,77.8,29.26,WNW,292,0.0,0.0,86,0.00,,OVC240,0.00,VWS V14.01,2013-06-05 14:53:00,
2013-06-05 09:54:00,82.4,77.8,29.26,WNW,292,0.9,0.9,86,0.00,,OVC240,0.00,VWS V14.01,2013-06-05 14:54:00,
2013-06-05 10:10:00,81.5,75.5,29.23,West,270,0.0,0.0,82,0.00,,OVC240,0.00,VWS V14.01,2013-06-05 15:10:00,
2013-06-05 10:20:00,80.6,75.0,29.23,West,270,1.3,1.6,83,0.00,,OVC240,0.00,VWS V14.01,2013-06-05 15:20:00,
2013-06-05 10:30:00,82.2,75.8,29.26,SW,225,0.0,0.0,81,0.00,,OVC240,0.00,VWS V14.01,2013-06-05 15:30:00,
2013-06-05 10:40:00,83.8,76.6,29.23,West,270,3.1,3.1,79,0.00,,OVC240,0.00,VWS V14.01,2013-06-05 15:40:00,
2013-06-05 10:50:00,84.2,76.2,29.23,West,270,3.8,3.8,77,0.00,,OVC240,0.00,VWS V14.01,2013-06-05 15:50:00,
2013-06-05 11:00:00,84.6,75.8,29.23,West,270,0.9,1.6,75,0.00,,OVC240,0.00,VWS V14.01,2013-06-05 16:00:00,
2013-06-05 11:10:00,82.9,73.8,29.26,ESE,112,0.9,1.6,74,0.00,,OVC240,0.00,VWS V14.01,2013-06-05 16:10:00,
2013-06-05 11:20:00,81.9,73.9,29.26,NE,45,0.0,0.9,77,0.00,,OVC240,0.00,VWS V14.01,2013-06-05 16:20:00,
2013-06-05 11:30:00,81.3,73.8,29.26,WNW,292,0.0,1.6,78,0.00,,OVC240,0.00,VWS V14.01,2013-06-05 16:30:00,
2013-06-05 11:40:00,80.4,73.7,29.26,West,270,1.6,2.2,80,0.00,,OVC240,0.00,VWS V14.01,2013-06-05 16:40:00,
2013-06-05 11:50:00,79.0,72.7,29.26,North,0,2.0,2.0,81,0.00,,OVC240,0.00,VWS V14.01,2013-06-05 16:50:00,
2013-06-05 12:00:00,77.4,71.4,29.26,ESE,112,2.0,2.0,82,0.00,,OVC240,0.00,VWS V14.01,2013-06-05 17:00:00,
2013-06-05 12:10:00,76.1,71.3,29.23,NW,315,1.1,1.1,85,0.00,,OVC240,0.00,VWS V14.01,2013-06-05 17:10:00,
2013-06-05 12:20:00,75.4,71.2,29.23,NW,315,0.0,0.0,87,0.00,,OVC240,0.00,VWS V14.01,2013-06-05 17:20:00,
2013-06-05 12:30:00,74.5,71.0,29.26,NW,315,0.0,0.9,89,0.00,,OVC240,0.00,VWS V14.01,2013-06-05 17:30:00,
2013-06-05 12:50:00,72.5,68.8,29.26,North,0,3.4,5.4,88,0.00,,OVC240,0.00,VWS V14.01,2013-06-05 17:50:00,
2013-06-05 13:00:00,69.6,65.6,29.26,West,270,2.5,2.5,87,0.00,,OVC240,0.00,VWS V14.01,2013-06-05 18:00:00,
2013-06-05 13:10:00,68.4,65.3,29.23,North,0,1.6,2.7,90,0.00,,OVC240,0.00,VWS V14.01,2013-06-05 18:10:00,
2013-06-05 13:15:00,68.2,65.5,29.23,SE,135,5.4,5.4,91,0.00,,OVC240,0.00,VWS V14.01,2013-06-05 18:15:00,
2013-06-05 13:16:00,68.2,65.8,29.23,SE,135,8.1,8.1,92,0.00,,OVC240,0.00,VWS V14.01,2013-06-05 18:16:00,
2013-06-05 13:17:00,67.8,65.7,29.23,South,180,3.6,8.1,93,0.00,,OVC240,0.00,VWS V14.01,2013-06-05 18:17:00,
2013-06-05 13:18:00,67.8,65.4,29.23,SSE,158,4.3,8.1,92,0.00,,OVC240,0.00,VWS V14.01,2013-06-05 18:18:00,
2013-06-05 13:19:00,67.6,65.2,29.23,SW,225,3.4,8.1,92,0.00,,OVC240,0.00,VWS V14.01,2013-06-05 18:19:00,
2013-06-05 13:20:00,67.6,65.6,29.23,SE,135,2.5,8.1,93,0.00,,OVC240,0.00,VWS V14.01,2013-06-05 18:20:00,
2013-06-05 13:21:00,67.6,65.6,29.26,ENE,68,2.7,4.3,93,0.00,,OVC240,0.00,VWS V14.01,2013-06-05 18:21:00,
2013-06-05 13:23:00,67.6,65.6,29.26,ENE,68,2.7,4.3,93,0.00,,OVC240,0.00,VWS V14.01,2013-06-05 18:23:00,
2013-06-05 13:24:00,67.5,65.7,29.26,NNE,22,4.7,7.8,94,0.00,,OVC240,0.00,VWS V14.01,2013-06-05 18:24:00,
2013-06-05 13:25:00,67.5,65.7,29.26,NE,45,1.3,7.8,94,0.00,,OVC240,0.00,VWS V14.01,2013-06-05 18:25:00,
2013-06-05 13:30:00,67.3,65.5,29.26,SW,225,1.3,2.2,94,0.00,,OVC240,0.00,VWS V14.01,2013-06-05 18:30:00,
2013-06-05 13:31:00,67.3,65.5,29.26,SW,225,2.0,2.0,94,0.00,,OVC240,0.00,VWS V14.01,2013-06-05 18:31:00,
2013-06-05 13:32:00,67.3,65.5,29.26,SW,225,3.4,3.4,94,0.00,,OVC240,0.00,VWS V14.01,2013-06-05 18:32:00,
2013-06-05 13:33:00,67.3,65.5,29.26,SW,225,3.8,3.8,94,0.00,,OVC240,0.00,VWS V14.01,2013-06-05 18:33:00,
2013-06-05 13:40:00,67.3,65.8,29.29,ESE,112,2.9,2.9,95,0.00,,OVC240,0.00,VWS V14.01,2013-06-05 18:40:00,
2013-06-05 13:50:00,67.5,66.0,29.29,SW,225,0.0,0.0,95,0.00,,OVC240,0.00,VWS V14.01,2013-06-05 18:50:00,
2013-06-05 13:51:00,67.5,66.0,29.29,SW,225,0.0,0.0,95,0.00,,OVC240,0.00,VWS V14.01,2013-06-05 18:51:00,
2013-06-05 14:20:00,67.3,66.4,29.23,North,0,2.5,2.5,97,0.00,,OVC240,0.00,VWS V14.01,2013-06-05 19:20:00,
2013-06-05 14:30:00,67.1,66.2,29.26,NNE,22,2.5,3.8,97,0.00,,OVC240,0.00,VWS V14.01,2013-06-05 19:30:00,
2013-06-05 14:50:00,67.1,66.2,29.20,South,180,0.0,0.0,97,0.00,,OVC240,0.00,VWS V14.01,2013-06-05 19:50:00,
2013-06-05 15:00:00,67.3,66.4,29.23,SE,135,0.0,0.0,97,0.00,,OVC240,0.00,VWS V14.01,2013-06-05 20:00:00,
2013-06-05 15:20:00,69.8,68.9,29.23,SE,135,0.9,0.9,97,0.00,,OVC240,0.00,VWS V14.01,2013-06-05 20:20:00,
2013-06-05 15:30:00,71.1,70.2,29.23,SE,135,1.3,1.3,97,0.00,,OVC240,0.00,VWS V14.01,2013-06-05 20:30:00,
2013-06-05 15:31:00,71.1,70.2,29.23,SE,135,1.6,1.6,97,0.00,,OVC240,0.00,VWS V14.01,2013-06-05 20:31:00,
2013-06-05 15:32:00,70.9,70.0,29.23,SE,135,0.9,1.6,97,0.00,,OVC240,0.00,VWS V14.01,2013-06-05 20:32:00,
2013-06-05 15:33:00,70.9,70.0,29.23,ESE,112,0.0,1.6,97,0.00,,OVC240,0.00,VWS V14.01,2013-06-05 20:33:00,
2013-06-05 15:34:00,70.9,70.0,29.23,ESE,112,1.1,1.6,97,0.00,,OVC240,0.00,VWS V14.01,2013-06-05 20:34:00,
2013-06-05 15:35:00,70.9,70.0,29.23,NE,45,2.5,2.5,97,0.00,,OVC240,0.00,VWS V14.01,2013-06-05 20:35:00,
2013-06-05 15:36:00,70.9,70.0,29.20,NE,45,0.9,2.5,97,0.00,,OVC240,0.00,VWS V14.01,2013-06-05 20:36:00,
2013-06-05 15:38:00,70.9,70.0,29.20,NE,45,0.9,2.5,97,0.00,,OVC240,0.00,VWS V14.01,2013-06-05 20:38:00,
2013-06-05 15:40:00,70.7,69.5,29.20,NNE,22,2.5,2.5,96,0.00,,OVC240,0.00,VWS V14.01,2013-06-05 20:40:00,
2013-06-05 15:50:00,70.2,69.0,29.20,North,0,3.1,3.1,96,0.00,,OVC240,0.00,VWS V14.01,2013-06-05 20:50:00,
2013-06-05 16:10:00,72.3,71.1,29.17,WNW,292,0.9,0.9,96,0.00,,OVC240,0.00,VWS V14.01,2013-06-05 21:10:00,
2013-06-05 16:20:00,73.8,72.6,29.17,NW,315,0.0,0.9,96,0.00,,OVC240,0.00,VWS V14.01,2013-06-05 21:20:00,
2013-06-05 16:40:00,73.6,71.4,29.20,ESE,112,0.0,0.0,93,0.00,,OVC240,0.00,VWS V14.01,2013-06-05 21:40:00,
2013-06-05 16:41:00,73.6,71.4,29.20,ESE,112,0.0,0.0,93,0.00,,OVC240,0.00,VWS V14.01,2013-06-05 21:41:00,
2013-06-05 16:50:00,73.0,70.9,29.20,SE,135,0.0,0.0,93,0.00,,OVC240,0.00,VWS V14.01,2013-06-05 21:50:00,
2013-06-05 17:00:00,73.0,70.9,29.20,SE,135,0.9,1.1,93,0.00,,OVC240,0.00,VWS V14.01,2013-06-05 22:00:00,
2013-06-05 17:10:00,73.6,71.4,29.17,NNE,22,2.0,2.0,93,0.00,,OVC240,0.00,VWS V14.01,2013-06-05 22:10:00,
2013-06-05 17:20:00,74.7,72.5,29.17,NW,315,0.0,0.0,93,0.00,,OVC240,0.00,VWS V14.01,2013-06-05 22:20:00,
2013-06-05 17:24:00,74.7,72.5,29.17,NW,315,0.0,0.0,93,0.00,,OVC240,0.00,VWS V14.01,2013-06-05 22:24:00,
2013-06-05 17:30:00,74.7,72.5,29.17,SSW,202,0.0,0.0,93,0.00,,OVC240,0.00,VWS V14.01,2013-06-05 22:30:00,
2013-06-05 17:31:00,74.5,72.0,29.17,SSW,202,0.0,0.0,92,0.00,,OVC240,0.00,VWS V14.01,2013-06-05 22:31:00,
2013-06-05 17:32:00,74.5,72.0,29.17,SSW,202,0.0,0.0,92,0.00,,OVC240,0.00,VWS V14.01,2013-06-05 22:32:00,
2013-06-05 17:33:00,74.5,72.0,29.17,SSW,202,0.0,0.0,92,0.00,,OVC240,0.00,VWS V14.01,2013-06-05 22:33:00,
2013-06-05 17:34:00,74.5,72.0,29.17,SSW,202,0.0,0.0,92,0.00,,OVC240,0.00,VWS V14.01,2013-06-05 22:34:00,
2013-06-05 17:35:00,74.5,72.0,29.17,SE,135,1.6,1.6,92,0.00,,OVC240,0.00,VWS V14.01,2013-06-05 22:35:00,
2013-06-05 17:36:00,74.3,71.8,29.17,SE,135,2.7,2.7,92,0.00,,OVC240,0.00,VWS V14.01,2013-06-05 22:36:00,
2013-06-05 17:37:00,73.9,71.5,29.17,SE,135,1.3,2.7,92,0.00,,OVC240,0.00,VWS V14.01,2013-06-05 22:37:00,
2013-06-05 17:38:00,73.9,71.5,29.17,SE,135,0.0,2.7,92,0.00,,OVC240,0.00,VWS V14.01,2013-06-05 22:38:00,
2013-06-05 17:39:00,73.9,71.5,29.17,SE,135,0.0,2.7,92,0.00,,OVC240,0.00,VWS V14.01,2013-06-05 22:39:00,
2013-06-05 17:40:00,73.9,71.5,29.17,SE,135,0.0,2.7,92,0.00,,OVC240,0.00,VWS V14.01,2013-06-05 22:40:00,
2013-06-05 17:42:00,73.9,71.5,29.17,SE,135,0.0,2.7,92,0.00,,OVC240,0.00,VWS V14.01,2013-06-05 22:42:00,
2013-06-05 17:50:00,73.9,71.8,29.17,SW,225,0.0,0.0,93,0.00,,OVC240,0.00,VWS V14.01,2013-06-05 22:50:00,
2013-06-05 18:00:00,72.9,70.7,29.14,SW,225,0.0,0.0,93,0.00,,OVC240,0.00,VWS V14.01,2013-06-05 23:00:00,
2013-06-05 18:10:00,72.1,70.3,29.17,SW,225,0.0,0.0,94,0.00,,OVC240,0.00,VWS V14.01,2013-06-05 23:10:00,
2013-06-05 18:20:00,71.6,69.8,29.17,SE,135,0.0,0.0,94,0.00,,OVC240,0.00,VWS V14.01,2013-06-05 23:20:00,
2013-06-05 18:40:00,70.9,69.4,29.17,SW,225,0.0,0.0,95,0.00,,OVC240,0.00,VWS V14.01,2013-06-05 23:40:00,
2013-06-05 19:00:00,70.2,69.0,29.17,South,180,0.0,0.0,96,0.00,,OVC240,0.00,VWS V14.01,2013-06-06 00:00:00,
2013-06-05 19:10:00,70.0,68.8,29.20,WSW,248,0.0,0.0,96,0.00,,OVC240,0.00,VWS V14.01,2013-06-06 00:10:00,
2013-06-05 19:20:00,69.8,68.6,29.20,WSW,248,0.0,0.0,96,0.00,,OVC240,0.00,VWS V14.01,2013-06-06 00:20:00,
2013-06-05 19:21:00,69.8,68.6,29.20,WSW,248,0.0,0.0,96,0.00,,OVC240,0.00,VWS V14.01,2013-06-06 00:21:00,
2013-06-05 19:30:00,69.6,68.4,29.17,East,90,0.0,0.0,96,0.00,,OVC240,0.00,VWS V14.01,2013-06-06 00:30:00,
2013-06-05 19:40:00,69.3,68.1,29.20,SSW,202,0.0,0.0,96,0.00,,OVC240,0.00,VWS V14.01,2013-06-06 00:40:00,
2013-06-05 19:50:00,69.3,68.1,29.20,NW,315,0.0,0.9,96,0.00,,OVC240,0.00,VWS V14.01,2013-06-06 00:50:00,
2013-06-05 20:00:00,68.9,67.7,29.20,NW,315,0.0,0.0,96,0.00,,OVC240,0.00,VWS V14.01,2013-06-06 01:00:00,
2013-06-05 20:10:00,68.5,67.4,29.17,NW,315,0.0,0.0,96,0.00,,OVC240,0.00,VWS V14.01,2013-06-06 01:10:00,
2013-06-05 20:11:00,68.5,67.4,29.17,NW,315,0.0,0.0,96,0.00,,OVC240,0.00,VWS V14.01,2013-06-06 01:11:00,
2013-06-05 20:20:00,68.4,67.5,29.17,West,270,0.0,0.0,97,0.00,,OVC240,0.00,VWS V14.01,2013-06-06 01:20:00,
2013-06-05 20:30:00,68.2,67.3,29.17,West,270,1.3,1.6,97,0.00,,OVC240,0.00,VWS V14.01,2013-06-06 01:30:00,
2013-06-05 20:40:00,68.0,67.1,29.17,West,270,0.0,0.0,97,0.00,,OVC240,0.00,VWS V14.01,2013-06-06 01:40:00,
2013-06-05 20:50:00,68.0,67.1,29.17,WNW,292,0.0,0.0,97,0.00,,OVC240,0.00,VWS V14.01,2013-06-06 01:50:00,
2013-06-05 20:51:00,68.0,67.1,29.17,WNW,292,0.0,0.0,97,0.00,,OVC240,0.00,VWS V14.01,2013-06-06 01:51:00,
2013-06-05 21:00:00,67.8,66.9,29.17,WNW,292,0.0,0.0,97,0.00,,OVC240,0.00,VWS V14.01,2013-06-06 02:00:00,
2013-06-05 21:04:00,67.8,66.9,29.17,WNW,292,0.0,0.0,97,0.00,,OVC240,0.00,VWS V14.01,2013-06-06 02:04:00,
2013-06-05 21:10:00,67.5,66.6,29.17,WNW,292,0.0,0.0,97,0.00,,OVC240,0.00,VWS V14.01,2013-06-06 02:10:00,
2013-06-05 21:20:00,67.3,66.4,29.17,WNW,292,0.0,0.0,97,0.00,,OVC240,0.00,VWS V14.01,2013-06-06 02:20:00,
2013-06-05 21:40:00,66.9,66.0,29.20,WNW,292,0.0,0.0,97,0.00,,OVC240,0.00,VWS V14.01,2013-06-06 02:40:00,
2013-06-05 21:50:00,67.1,66.2,29.20,WNW,292,0.0,0.0,97,0.00,,OVC240,0.00,VWS V14.01,2013-06-06 02:50:00,
2013-06-05 22:00:00,66.7,65.9,29.20,WNW,292,0.0,0.0,97,0.00,,OVC240,0.00,VWS V14.01,2013-06-06 03:00:00,
2013-06-05 22:10:00,66.9,66.3,29.20,WNW,292,0.0,0.0,98,0.00,,OVC240,0.00,VWS V14.01,2013-06-06 03:10:00,
2013-06-05 22:20:00,66.9,66.3,29.20,ENE,68,0.0,0.0,98,0.00,,OVC240,0.00,VWS V14.01,2013-06-06 03:20:00,
2013-06-05 22:40:00,66.7,66.2,29.20,NW,315,0.0,0.0,98,0.00,,OVC240,0.00,VWS V14.01,2013-06-06 03:40:00,
2013-06-05 22:50:00,66.7,66.2,29.20,NW,315,0.0,0.0,98,0.00,,OVC240,0.00,VWS V14.01,2013-06-06 03:50:00,
2013-06-05 23:00:00,66.6,66.0,29.20,NW,315,0.0,0.0,98,0.00,,OVC240,0.00,VWS V14.01,2013-06-06 04:00:00,
2013-06-05 23:10:00,66.7,66.2,29.17,WNW,292,0.0,0.0,98,0.00,,OVC240,0.00,VWS V14.01,2013-06-06 04:10:00,
2013-06-05 23:20:00,66.7,66.2,29.17,SW,225,2.2,2.2,98,0.00,,OVC240,0.00,VWS V14.01,2013-06-06 04:20:00,
2013-06-05 23:40:00,66.6,66.0,29.17,West,270,0.0,0.0,98,0.00,,OVC240,0.00,VWS V14.01,2013-06-06 04:40:00,
2013-06-05 23:50:00,66.6,66.0,29.17,West,270,0.0,0.0,98,0.00,,OVC240,0.00,VWS V14.01,2013-06-06 04:50:00,